In Rescue
 
Wind Gusting 00 knots
04
December 19, 2018 11:37 AM EST
Weather Information
Wind Direction
  150 °
Wind Speed
  04 kt (5 mph)
Wind Gust
  00 kt (0 mph)
Altimeter
30.02 in
Visibility
10 SM
Temperature
06° C
43° F
Dewpoint
01° C
34° F
Humidity
71%
Sky Condition
Clear
VFR

METAR KIMS 191637Z AUTO 15004KT 10SM CLR 06/01 A3002 RMK AO1

FAA Disclaimer: The data displayed is for advisory purposes only and is not to be used for flight planning or operations.